Time;durP1;ratioP1;P1;durP2;ratioP2;P2;SDS_P1;SDS_P2;PMS_P1;PMS_P2;Temp;Humidity;BMP_temperature;BMP_pressure;BME280_temperature;BME280_humidity;BME280_pressure;Samples;Min_cycle;Max_cycle;Signal;HPM_P1;HPM_P2
2023/04/23 00:00:18;;;;;;;6.82;3.80;;;;;;;;;;4991384;28;20786;-80
2023/04/23 00:02:48;;;;;;;6.63;3.70;;;;;;;;;;4994665;28;20402;-80
2023/04/23 00:05:22;;;;;;;7.10;4.10;;;;;;;;;;4990556;28;20429;-80
2023/04/23 00:07:50;;;;;;;6.13;3.45;;;;;;;;;;4992544;28;20418;-80
2023/04/23 00:10:23;;;;;;;6.13;3.67;;;;;;;;;;4991987;28;20426;-80
2023/04/23 00:12:56;;;;;;;9.10;4.13;;;;;;;;;;4990802;28;20430;-80
2023/04/23 00:15:26;;;;;;;7.55;3.90;;;;;;;;;;4990714;28;20879;-80
2023/04/23 00:17:54;;;;;;;7.25;4.10;;;;;;;;;;4992417;28;20423;-81
2023/04/23 00:20:22;;;;;;;8.50;3.70;;;;;;;;;;4992706;28;20906;-79
2023/04/23 00:22:55;;;;;;;7.70;4.13;;;;;;;;;;4984305;28;20907;-79
2023/04/23 00:25:23;;;;;;;7.80;3.95;;;;;;;;;;4990739;28;20426;-80
2023/04/23 00:27:50;;;;;;;8.35;4.10;;;;;;;;;;4985143;28;20431;-80
2023/04/23 00:30:18;;;;;;;8.45;4.15;;;;;;;;;;4990702;28;21003;-80
2023/04/23 00:32:52;;;;;;;6.38;3.50;;;;;;;;;;5008931;28;20441;-80
2023/04/23 00:35:20;;;;;;;6.87;3.90;;;;;;;;;;4992344;28;20489;-80
2023/04/23 00:37:48;;;;;;;7.88;4.20;;;;;;;;;;4991197;28;20425;-80
2023/04/23 00:40:17;;;;;;;7.70;3.97;;;;;;;;;;4991775;28;20767;-80
2023/04/23 00:42:46;;;;;;;7.07;4.10;;;;;;;;;;5007113;28;20880;-80
2023/04/23 00:45:13;;;;;;;8.18;4.15;;;;;;;;;;4991316;28;20437;-81
2023/04/23 00:47:46;;;;;;;7.72;3.95;;;;;;;;;;4981585;28;20484;-80
2023/04/23 00:50:15;;;;;;;6.25;3.90;;;;;;;;;;4990728;28;20426;-80
2023/04/23 00:52:43;;;;;;;8.70;4.55;;;;;;;;;;4990589;28;20899;-80
2023/04/23 00:55:16;;;;;;;7.95;4.35;;;;;;;;;;5005223;28;20442;-79
2023/04/23 00:57:44;;;;;;;7.78;4.55;;;;;;;;;;4981047;28;20426;-80
2023/04/23 01:00:13;;;;;;;9.18;4.57;;;;;;;;;;4990144;28;20426;-80
2023/04/23 01:02:47;;;;;;;9.35;4.65;;;;;;;;;;5006855;28;20456;-80
2023/04/23 01:05:23;;;;;;;7.17;4.63;;;;;;;;;;4979722;28;20435;-80
2023/04/23 01:07:51;;;;;;;8.57;4.45;;;;;;;;;;5007594;28;20756;-80
2023/04/23 01:10:19;;;;;;;6.90;4.35;;;;;;;;;;4991281;28;20425;-80
2023/04/23 01:12:46;;;;;;;8.80;5.28;;;;;;;;;;4990333;28;20429;-80
2023/04/23 01:15:19;;;;;;;9.85;5.00;;;;;;;;;;4991003;28;20430;-80
2023/04/23 01:17:47;;;;;;;9.15;4.78;;;;;;;;;;4990362;28;20437;-80
2023/04/23 01:20:15;;;;;;;8.70;4.50;;;;;;;;;;4991179;28;20422;-80
2023/04/23 01:22:49;;;;;;;9.15;4.97;;;;;;;;;;4992056;28;20426;-80
2023/04/23 01:25:17;;;;;;;7.70;4.50;;;;;;;;;;4991132;28;20414;-80
2023/04/23 01:27:45;;;;;;;7.50;4.20;;;;;;;;;;4991351;28;20417;-81
2023/04/23 01:30:18;;;;;;;7.80;4.35;;;;;;;;;;4989198;28;20430;-79
2023/04/23 01:32:47;;;;;;;7.75;4.20;;;;;;;;;;4991328;28;20426;-80
2023/04/23 01:35:20;;;;;;;7.03;4.45;;;;;;;;;;4991592;28;20633;-80
2023/04/23 01:37:48;;;;;;;8.45;4.40;;;;;;;;;;4990888;28;20433;-80
2023/04/23 01:40:17;;;;;;;6.90;4.20;;;;;;;;;;4992772;28;21210;-80
2023/04/23 01:42:50;;;;;;;7.72;4.38;;;;;;;;;;4990890;28;20854;-80
2023/04/23 01:45:18;;;;;;;8.52;4.55;;;;;;;;;;4991769;28;20774;-79
2023/04/23 01:47:46;;;;;;;8.98;4.07;;;;;;;;;;4989630;28;20422;-79
2023/04/23 01:50:22;;;;;;;7.75;4.82;;;;;;;;;;4989714;28;20422;-79
2023/04/23 01:52:49;;;;;;;8.20;4.78;;;;;;;;;;5005618;28;20437;-80
2023/04/23 01:55:24;;;;;;;7.95;4.85;;;;;;;;;;4991459;28;20422;-79
2023/04/23 01:57:51;;;;;;;8.97;5.17;;;;;;;;;;4989626;28;20433;-80
2023/04/23 02:00:20;;;;;;;11.88;5.90;;;;;;;;;;4990458;28;20430;-79
2023/04/23 02:02:47;;;;;;;9.48;5.57;;;;;;;;;;4991442;28;20415;-80
2023/04/23 02:05:17;;;;;;;9.38;5.72;;;;;;;;;;4991587;28;20417;-79
2023/04/23 02:07:50;;;;;;;9.52;5.75;;;;;;;;;;5000867;28;20425;-79
2023/04/23 02:10:20;;;;;;;8.90;5.60;;;;;;;;;;4980866;28;20424;-79
2023/04/23 02:12:55;;;;;;;10.00;5.90;;;;;;;;;;5009940;28;20437;-79
2023/04/23 02:15:28;;;;;;;10.25;6.18;;;;;;;;;;4987302;28;20428;-79
2023/04/23 02:17:56;;;;;;;9.57;5.80;;;;;;;;;;4994900;28;20436;-80
2023/04/23 02:20:24;;;;;;;10.00;5.80;;;;;;;;;;5009306;28;20907;-80
2023/04/23 02:22:51;;;;;;;11.13;6.20;;;;;;;;;;4993573;28;20429;-79
2023/04/23 02:25:24;;;;;;;9.93;6.13;;;;;;;;;;5000917;28;20797;-79
2023/04/23 02:28:00;;;;;;;10.30;6.03;;;;;;;;;;4992032;28;20435;-79
2023/04/23 02:30:28;;;;;;;9.80;6.22;;;;;;;;;;4992969;28;20795;-79
2023/04/23 02:32:56;;;;;;;11.35;6.65;;;;;;;;;;4995032;28;20438;-81
2023/04/23 02:35:24;;;;;;;10.05;6.50;;;;;;;;;;4993211;28;20433;-80
2023/04/23 02:37:56;;;;;;;12.45;6.57;;;;;;;;;;5001776;28;20798;-80
2023/04/23 02:40:24;;;;;;;10.55;6.20;;;;;;;;;;4993647;28;20414;-80
2023/04/23 02:42:58;;;;;;;10.60;6.63;;;;;;;;;;4992234;28;20773;-79
2023/04/23 02:45:31;;;;;;;11.13;6.40;;;;;;;;;;5009705;28;20433;-79
2023/04/23 02:48:04;;;;;;;10.70;6.35;;;;;;;;;;4993949;28;21324;-79
2023/04/23 02:50:31;;;;;;;10.57;6.45;;;;;;;;;;5000517;28;20433;-79
2023/04/23 02:52:59;;;;;;;10.53;6.10;;;;;;;;;;4995787;28;20832;-79
2023/04/23 02:55:30;;;;;;;10.57;6.63;;;;;;;;;;4985077;28;20414;-80
2023/04/23 02:58:05;;;;;;;11.02;6.40;;;;;;;;;;4983053;28;20759;-79
2023/04/23 03:00:35;;;;;;;9.13;6.03;;;;;;;;;;4992107;28;20895;-79
2023/04/23 03:03:02;;;;;;;10.50;6.50;;;;;;;;;;5009709;28;20418;-78
2023/04/23 03:05:30;;;;;;;11.13;6.80;;;;;;;;;;4991778;28;20426;-79
2023/04/23 03:08:03;;;;;;;10.27;6.10;;;;;;;;;;4993174;28;20775;-80
2023/04/23 03:10:31;;;;;;;10.20;6.32;;;;;;;;;;4993276;28;20759;-79
2023/04/23 03:13:05;;;;;;;9.65;6.18;;;;;;;;;;4991599;28;20459;-80
2023/04/23 03:15:38;;;;;;;9.68;6.22;;;;;;;;;;4992677;28;20414;-79
2023/04/23 03:18:11;;;;;;;12.07;6.55;;;;;;;;;;5001112;28;21167;-79
2023/04/23 03:20:39;;;;;;;11.48;6.40;;;;;;;;;;4998795;28;20566;-79
2023/04/23 03:23:08;;;;;;;10.68;6.97;;;;;;;;;;4993542;28;20439;-79
2023/04/23 03:25:40;;;;;;;12.35;7.55;;;;;;;;;;5000888;28;20423;-80
2023/04/23 03:28:10;;;;;;;13.38;7.72;;;;;;;;;;4992411;28;20431;-79
2023/04/23 03:30:42;;;;;;;13.57;8.30;;;;;;;;;;5007768;28;20512;-79
2023/04/23 03:33:10;;;;;;;13.23;8.37;;;;;;;;;;4991553;28;21469;-81
2023/04/23 03:35:43;;;;;;;13.07;8.30;;;;;;;;;;5007216;28;20437;-79
2023/04/23 03:38:21;;;;;;;14.45;9.23;;;;;;;;;;4993569;28;20415;-79
2023/04/23 03:40:55;;;;;;;16.37;10.13;;;;;;;;;;5008676;28;20418;-80
2023/04/23 03:43:25;;;;;;;19.23;12.60;;;;;;;;;;4990313;28;20418;-79
2023/04/23 03:46:04;;;;;;;19.33;12.73;;;;;;;;;;4995472;28;20433;-80
2023/04/23 03:48:36;;;;;;;20.98;13.98;;;;;;;;;;4991837;28;20422;-78
2023/04/23 03:51:14;;;;;;;23.75;15.35;;;;;;;;;;5008277;28;20430;-80
2023/04/23 03:53:45;;;;;;;27.60;16.75;;;;;;;;;;4984442;28;20430;-78
2023/04/23 03:56:33;;;;;;;27.90;17.85;;;;;;;;;;4991946;28;20879;-78
2023/04/23 03:59:16;;;;;;;29.13;18.65;;;;;;;;;;5007973;28;20453;-77
2023/04/23 04:01:51;;;;;;;29.23;18.52;;;;;;;;;;5000032;28;20431;-80
2023/04/23 04:04:25;;;;;;;34.65;21.30;;;;;;;;;;5007031;28;20429;-78
2023/04/23 04:06:54;;;;;;;35.60;21.83;;;;;;;;;;4997798;28;20429;-79
2023/04/23 04:09:28;;;;;;;43.27;25.80;;;;;;;;;;5008041;28;20429;-79
2023/04/23 04:12:00;;;;;;;47.40;28.42;;;;;;;;;;5005712;28;20426;-79
2023/04/23 04:14:34;;;;;;;43.60;26.48;;;;;;;;;;5007290;28;20430;-78
2023/04/23 04:17:08;;;;;;;38.00;24.27;;;;;;;;;;4992060;28;20430;-78
2023/04/23 04:19:35;;;;;;;39.97;24.85;;;;;;;;;;4991722;28;20930;-80
2023/04/23 04:22:03;;;;;;;39.33;23.48;;;;;;;;;;5002223;28;20426;-79
2023/04/23 04:24:31;;;;;;;35.17;22.13;;;;;;;;;;4997376;28;20422;-79
2023/04/23 04:27:00;;;;;;;36.95;23.23;;;;;;;;;;4985283;28;20775;-78
2023/04/23 04:29:28;;;;;;;34.80;22.48;;;;;;;;;;4983234;28;20427;-79
2023/04/23 04:31:57;;;;;;;37.77;23.57;;;;;;;;;;5006756;28;20429;-80
2023/04/23 04:34:25;;;;;;;44.47;25.23;;;;;;;;;;4991583;28;20429;-79
2023/04/23 04:36:53;;;;;;;41.92;24.38;;;;;;;;;;4992217;28;20433;-80
2023/04/23 04:39:21;;;;;;;39.08;23.60;;;;;;;;;;4990802;28;20433;-80
2023/04/23 04:41:54;;;;;;;42.05;25.02;;;;;;;;;;5010225;28;20426;-80
2023/04/23 04:44:27;;;;;;;38.67;23.45;;;;;;;;;;4991996;28;20419;-80
2023/04/23 04:46:55;;;;;;;41.80;24.75;;;;;;;;;;4992559;28;20418;-80
2023/04/23 04:49:29;;;;;;;43.22;24.60;;;;;;;;;;4990672;28;20433;-80
2023/04/23 04:51:57;;;;;;;39.73;23.50;;;;;;;;;;4991811;28;20414;-80
2023/04/23 04:54:29;;;;;;;36.05;22.33;;;;;;;;;;4993521;28;20430;-80
2023/04/23 04:57:02;;;;;;;39.20;23.10;;;;;;;;;;4984302;28;20437;-81
2023/04/23 04:59:30;;;;;;;35.63;21.10;;;;;;;;;;4991506;28;20815;-79
2023/04/23 05:02:03;;;;;;;36.23;21.07;;;;;;;;;;4988748;28;20447;-80
2023/04/23 05:04:32;;;;;;;30.23;18.48;;;;;;;;;;4989806;28;20433;-80
2023/04/23 05:07:05;;;;;;;32.13;18.52;;;;;;;;;;5005686;28;20453;-80
2023/04/23 05:09:37;;;;;;;30.48;18.20;;;;;;;;;;4991207;28;20918;-80
2023/04/23 05:12:06;;;;;;;28.13;17.30;;;;;;;;;;4989744;28;20434;-79
2023/04/23 05:14:39;;;;;;;27.27;15.98;;;;;;;;;;4990184;28;20430;-81
2023/04/23 05:17:07;;;;;;;29.35;17.05;;;;;;;;;;4990437;28;20425;-80
2023/04/23 05:19:36;;;;;;;26.60;16.00;;;;;;;;;;5005165;28;20543;-79
2023/04/23 05:22:09;;;;;;;24.10;14.77;;;;;;;;;;4991073;28;20406;-79
2023/04/23 05:24:36;;;;;;;26.40;14.23;;;;;;;;;;4989536;28;20426;-79
2023/04/23 05:27:05;;;;;;;26.03;14.67;;;;;;;;;;5005385;28;20744;-78
2023/04/23 05:29:32;;;;;;;24.02;14.20;;;;;;;;;;4990060;28;20434;-81
2023/04/23 05:32:00;;;;;;;23.60;12.98;;;;;;;;;;5002177;28;20771;-82
2023/04/23 05:34:28;;;;;;;22.58;12.75;;;;;;;;;;4991273;28;20426;-81
2023/04/23 05:37:02;;;;;;;21.92;13.13;;;;;;;;;;5006222;28;20442;-81
2023/04/23 05:39:35;;;;;;;21.37;12.50;;;;;;;;;;4998076;28;20516;-81
2023/04/23 05:42:08;;;;;;;21.20;12.00;;;;;;;;;;5004926;28;20433;-81
2023/04/23 05:44:41;;;;;;;18.00;10.52;;;;;;;;;;4989443;28;20934;-80
2023/04/23 05:47:14;;;;;;;16.67;8.93;;;;;;;;;;4999012;28;20917;-81
2023/04/23 05:49:42;;;;;;;16.40;9.10;;;;;;;;;;4986954;28;20873;-80
2023/04/23 05:52:16;;;;;;;15.25;8.05;;;;;;;;;;4990297;28;20430;-80
2023/04/23 05:54:49;;;;;;;12.35;7.43;;;;;;;;;;5004805;28;20442;-80
2023/04/23 05:57:17;;;;;;;12.98;7.20;;;;;;;;;;4991253;28;20420;-80
2023/04/23 05:59:44;;;;;;;14.20;7.30;;;;;;;;;;4988705;28;20430;-79
2023/04/23 06:02:17;;;;;;;13.00;7.35;;;;;;;;;;5008198;28;20429;-79
2023/04/23 06:04:50;;;;;;;15.68;8.88;;;;;;;;;;4990705;28;20425;-81
2023/04/23 06:07:24;;;;;;;12.83;7.80;;;;;;;;;;4983582;28;20435;-80
2023/04/23 06:09:52;;;;;;;14.93;8.27;;;;;;;;;;4990302;28;20429;-80
2023/04/23 06:12:20;;;;;;;14.45;7.40;;;;;;;;;;4989217;28;20449;-79
2023/04/23 06:14:48;;;;;;;9.43;5.88;;;;;;;;;;4988784;28;20441;-80
2023/04/23 06:17:16;;;;;;;9.15;4.60;;;;;;;;;;4992467;28;20430;-80
2023/04/23 06:19:43;;;;;;;9.10;4.53;;;;;;;;;;4987633;28;20430;-79
2023/04/23 06:22:11;;;;;;;9.35;4.53;;;;;;;;;;4988736;28;20430;-79
2023/04/23 06:24:40;;;;;;;9.60;4.53;;;;;;;;;;4988592;28;20425;-79
2023/04/23 06:27:08;;;;;;;8.18;4.30;;;;;;;;;;4989157;28;20434;-79
2023/04/23 06:29:45;;;;;;;10.00;4.28;;;;;;;;;;5004625;28;20419;-79
2023/04/23 06:32:19;;;;;;;8.73;4.07;;;;;;;;;;4989610;28;20585;-79
2023/04/23 06:34:47;;;;;;;7.90;4.07;;;;;;;;;;4989284;28;20452;-80
2023/04/23 06:37:20;;;;;;;8.60;4.18;;;;;;;;;;4990241;28;20418;-79
2023/04/23 06:39:54;;;;;;;7.18;3.83;;;;;;;;;;4989191;28;20918;-79
2023/04/23 06:42:21;;;;;;;9.57;4.45;;;;;;;;;;4989787;28;20414;-79
2023/04/23 06:45:14;;;;;;;7.35;4.18;;;;;;;;;;4997599;28;20414;-81
2023/04/23 06:47:48;;;;;;;7.70;3.70;;;;;;;;;;4988330;28;20429;-81
2023/04/23 06:50:21;;;;;;;10.57;3.92;;;;;;;;;;5005370;28;20443;-79
2023/04/23 06:52:48;;;;;;;8.20;3.78;;;;;;;;;;4990393;28;20433;-80
2023/04/23 06:55:18;;;;;;;6.97;3.55;;;;;;;;;;4995768;28;20440;-80
2023/04/23 06:57:46;;;;;;;9.07;3.80;;;;;;;;;;4998743;28;20423;-80
2023/04/23 07:00:19;;;;;;;8.33;3.50;;;;;;;;;;5009256;28;20430;-81
2023/04/23 07:02:46;;;;;;;7.13;3.30;;;;;;;;;;5015290;28;20420;-80
2023/04/23 07:05:15;;;;;;;9.18;4.32;;;;;;;;;;4996589;28;20406;-80
2023/04/23 07:07:43;;;;;;;9.07;5.05;;;;;;;;;;4992482;28;20508;-80
2023/04/23 07:10:16;;;;;;;9.18;4.93;;;;;;;;;;4992026;28;20423;-80
2023/04/23 07:12:50;;;;;;;8.00;3.72;;;;;;;;;;4991782;28;20421;-82
2023/04/23 07:15:17;;;;;;;8.33;4.27;;;;;;;;;;4992821;28;20472;-81
2023/04/23 07:17:50;;;;;;;9.75;4.20;;;;;;;;;;4991907;28;20431;-81
2023/04/23 07:20:23;;;;;;;8.32;4.82;;;;;;;;;;4992563;28;21209;-82
2023/04/23 07:22:51;;;;;;;10.27;4.90;;;;;;;;;;5009738;28;20915;-80
2023/04/23 07:25:20;;;;;;;9.32;4.53;;;;;;;;;;4987400;28;20423;-80
2023/04/23 07:27:54;;;;;;;10.83;4.60;;;;;;;;;;5007166;28;20430;-80
2023/04/23 07:30:27;;;;;;;13.07;5.80;;;;;;;;;;4989655;28;20430;-81
2023/04/23 07:33:00;;;;;;;10.07;5.50;;;;;;;;;;4992817;28;20791;-80
2023/04/23 07:35:27;;;;;;;10.13;5.60;;;;;;;;;;4991497;28;20433;-81
2023/04/23 07:38:00;;;;;;;12.18;6.07;;;;;;;;;;5006742;28;20438;-83
2023/04/23 07:40:28;;;;;;;11.25;6.25;;;;;;;;;;4985317;28;20423;-81
2023/04/23 07:42:58;;;;;;;11.23;6.20;;;;;;;;;;5006349;28;20913;-82
2023/04/23 07:45:26;;;;;;;12.10;6.35;;;;;;;;;;5008126;28;20921;-83
2023/04/23 07:47:55;;;;;;;13.98;7.13;;;;;;;;;;4992100;28;20434;-85
2023/04/23 07:50:23;;;;;;;12.38;6.70;;;;;;;;;;4994816;28;20430;-84
2023/04/23 07:52:51;;;;;;;11.80;6.78;;;;;;;;;;4990323;28;20442;-82
2023/04/23 07:55:19;;;;;;;12.30;6.75;;;;;;;;;;5008054;28;20457;-82
2023/04/23 07:57:47;;;;;;;11.10;6.30;;;;;;;;;;4993176;28;20791;-82
2023/04/23 08:00:16;;;;;;;12.03;6.23;;;;;;;;;;4993522;28;20921;-82
2023/04/23 08:02:44;;;;;;;9.55;5.65;;;;;;;;;;4987243;28;20430;-84
2023/04/23 08:05:17;;;;;;;9.82;5.70;;;;;;;;;;4991542;28;20429;-83
2023/04/23 08:07:45;;;;;;;9.60;5.20;;;;;;;;;;5008397;28;20926;-83
2023/04/23 08:10:17;;;;;;;10.65;5.10;;;;;;;;;;4988177;28;20428;-82
2023/04/23 08:12:45;;;;;;;8.38;4.75;;;;;;;;;;4991274;28;20441;-81
2023/04/23 08:15:13;;;;;;;8.23;4.07;;;;;;;;;;4998899;28;20436;-82
2023/04/23 08:17:45;;;;;;;8.38;4.30;;;;;;;;;;4993593;28;20425;-82
2023/04/23 08:20:13;;;;;;;7.93;4.07;;;;;;;;;;4991536;28;20784;-83
2023/04/23 08:22:41;;;;;;;9.45;4.22;;;;;;;;;;4993260;28;20434;-82
2023/04/23 08:25:09;;;;;;;9.15;4.22;;;;;;;;;;4991261;28;20438;-83
2023/04/23 08:27:37;;;;;;;8.60;4.40;;;;;;;;;;4992248;28;20434;-81
2023/04/23 08:30:06;;;;;;;8.95;4.03;;;;;;;;;;4991255;28;20439;-83
2023/04/23 08:32:34;;;;;;;7.88;3.92;;;;;;;;;;5007421;28;20441;-82
2023/04/23 08:35:03;;;;;;;8.73;4.50;;;;;;;;;;4992026;28;20426;-82
2023/04/23 08:37:37;;;;;;;7.73;3.83;;;;;;;;;;4991134;28;20689;-82
2023/04/23 08:40:06;;;;;;;7.55;4.25;;;;;;;;;;5001802;28;20489;-82
2023/04/23 08:42:37;;;;;;;7.80;4.20;;;;;;;;;;4986743;28;20446;-81
2023/04/23 08:45:06;;;;;;;10.18;4.55;;;;;;;;;;5007960;28;20426;-83
2023/04/23 08:47:35;;;;;;;7.78;4.13;;;;;;;;;;5000620;28;20762;-83
2023/04/23 08:50:05;;;;;;;7.68;4.00;;;;;;;;;;4991970;28;20418;-83
2023/04/23 08:52:34;;;;;;;8.95;4.40;;;;;;;;;;4992224;28;20423;-82
2023/04/23 08:55:04;;;;;;;8.07;4.10;;;;;;;;;;5006410;28;20430;-83
2023/04/23 08:57:32;;;;;;;9.93;4.30;;;;;;;;;;5007130;28;20438;-82
2023/04/23 09:00:01;;;;;;;8.38;3.97;;;;;;;;;;5007245;28;20936;-82
2023/04/23 09:02:29;;;;;;;8.03;4.40;;;;;;;;;;4992195;28;20430;-85
2023/04/23 09:04:57;;;;;;;9.02;4.40;;;;;;;;;;4988966;28;21252;-83
2023/04/23 09:07:26;;;;;;;8.10;4.13;;;;;;;;;;5000960;28;20437;-83
2023/04/23 09:09:54;;;;;;;9.23;4.22;;;;;;;;;;4991229;28;20796;-84
2023/04/23 09:12:22;;;;;;;9.20;4.70;;;;;;;;;;5005623;28;20440;-83
2023/04/23 09:14:50;;;;;;;7.88;4.45;;;;;;;;;;4990578;28;20434;-83
2023/04/23 09:17:19;;;;;;;9.93;5.20;;;;;;;;;;4993334;28;20442;-83
2023/04/23 09:19:47;;;;;;;9.35;5.00;;;;;;;;;;4991922;28;20410;-82
2023/04/23 09:22:14;;;;;;;8.20;4.50;;;;;;;;;;5006028;28;20437;-83
2023/04/23 09:24:44;;;;;;;8.75;4.82;;;;;;;;;;5006943;28;20446;-82
2023/04/23 09:27:11;;;;;;;9.48;4.82;;;;;;;;;;4992089;28;20892;-83
2023/04/23 09:29:39;;;;;;;8.57;4.60;;;;;;;;;;5008833;28;20419;-81
2023/04/23 09:32:08;;;;;;;8.40;4.82;;;;;;;;;;5000874;28;20443;-84
2023/04/23 09:34:37;;;;;;;7.68;4.72;;;;;;;;;;5007263;28;20426;-84
2023/04/23 09:37:06;;;;;;;9.75;5.05;;;;;;;;;;4992051;28;20422;-83
2023/04/23 09:39:36;;;;;;;9.20;5.03;;;;;;;;;;5004556;28;20761;-82
2023/04/23 09:42:08;;;;;;;8.43;4.70;;;;;;;;;;4991940;28;20779;-83
2023/04/23 09:44:36;;;;;;;9.65;4.55;;;;;;;;;;5005540;28;20425;-85
2023/04/23 09:47:08;;;;;;;8.27;4.50;;;;;;;;;;5003672;28;20458;-85
2023/04/23 09:49:45;;;;;;;9.95;5.07;;;;;;;;;;5005061;28;20911;-84
2023/04/23 09:52:13;;;;;;;8.05;4.50;;;;;;;;;;5012600;28;20431;-82
2023/04/23 09:54:40;;;;;;;7.60;4.28;;;;;;;;;;4990701;28;20779;-85
2023/04/23 09:57:11;;;;;;;8.98;4.40;;;;;;;;;;4988913;28;20917;-84
2023/04/23 09:59:43;;;;;;;9.18;4.55;;;;;;;;;;4989474;28;20441;-81
2023/04/23 10:02:17;;;;;;;8.07;4.60;;;;;;;;;;4993902;28;20910;-83
2023/04/23 10:04:50;;;;;;;7.57;4.35;;;;;;;;;;4990719;28;20434;-85
2023/04/23 10:07:23;;;;;;;7.90;4.53;;;;;;;;;;5006546;28;20445;-84
2023/04/23 10:09:56;;;;;;;7.60;4.40;;;;;;;;;;5006520;28;20426;-83
2023/04/23 10:12:25;;;;;;;10.03;4.90;;;;;;;;;;4991195;28;20433;-84
2023/04/23 10:14:56;;;;;;;9.85;4.30;;;;;;;;;;5003190;28;20443;-85
2023/04/23 10:17:29;;;;;;;7.10;4.00;;;;;;;;;;5004683;28;20426;-83
2023/04/23 10:19:58;;;;;;;7.57;4.00;;;;;;;;;;4984569;28;20439;-81
2023/04/23 10:22:28;;;;;;;7.90;4.10;;;;;;;;;;4990097;28;20807;-83
2023/04/23 10:24:57;;;;;;;9.33;4.60;;;;;;;;;;4994090;28;20931;-83
2023/04/23 10:27:28;;;;;;;9.63;4.63;;;;;;;;;;4990901;28;20410;-83
2023/04/23 10:29:57;;;;;;;10.07;4.70;;;;;;;;;;5009543;28;20414;-83
2023/04/23 10:32:25;;;;;;;8.20;4.80;;;;;;;;;;5009942;28;20907;-83
2023/04/23 10:34:53;;;;;;;8.57;4.82;;;;;;;;;;4996359;28;20434;-83
2023/04/23 10:37:22;;;;;;;8.65;4.50;;;;;;;;;;5009430;28;20438;-81
2023/04/23 10:39:56;;;;;;;8.52;4.68;;;;;;;;;;4993335;28;20428;-84
2023/04/23 10:42:24;;;;;;;8.52;4.30;;;;;;;;;;4987932;28;20838;-83
2023/04/23 10:44:55;;;;;;;8.10;4.30;;;;;;;;;;4993351;28;20434;-84
2023/04/23 10:47:28;;;;;;;9.95;4.43;;;;;;;;;;5009595;28;20445;-86
2023/04/23 10:49:56;;;;;;;7.30;3.92;;;;;;;;;;5009005;28;20441;-83
2023/04/23 10:52:23;;;;;;;7.75;4.05;;;;;;;;;;5008471;28;20442;-83
2023/04/23 10:54:56;;;;;;;8.02;3.97;;;;;;;;;;4993558;28;20430;-83
2023/04/23 10:57:24;;;;;;;11.15;4.72;;;;;;;;;;5006367;28;20438;-84
2023/04/23 10:59:55;;;;;;;8.15;4.22;;;;;;;;;;5011966;28;20474;-83
2023/04/23 11:02:23;;;;;;;7.47;4.13;;;;;;;;;;4998371;28;20434;-83
2023/04/23 11:04:54;;;;;;;6.90;3.72;;;;;;;;;;4993925;28;20430;-83
2023/04/23 11:07:29;;;;;;;7.90;4.13;;;;;;;;;;4992882;28;20921;-83
2023/04/23 11:09:58;;;;;;;8.18;4.15;;;;;;;;;;4994397;28;20890;-82
2023/04/23 11:12:32;;;;;;;7.13;3.92;;;;;;;;;;4990705;28;20926;-82
2023/04/23 11:15:10;;;;;;;6.85;3.85;;;;;;;;;;4992061;28;20430;-82
2023/04/23 11:17:57;;;;;;;7.10;3.87;;;;;;;;;;5008024;28;20548;-83
2023/04/23 11:20:30;;;;;;;7.97;4.05;;;;;;;;;;4991835;28;20457;-84
2023/04/23 11:23:05;;;;;;;7.68;3.72;;;;;;;;;;4992526;28;20949;-82
2023/04/23 11:25:35;;;;;;;7.82;3.70;;;;;;;;;;5004775;28;20436;-82
2023/04/23 11:28:04;;;;;;;7.75;4.35;;;;;;;;;;4991923;28;20441;-83
2023/04/23 11:30:33;;;;;;;7.57;3.93;;;;;;;;;;4992530;28;20430;-82
2023/04/23 11:33:06;;;;;;;6.40;3.72;;;;;;;;;;5006736;28;20438;-81
2023/04/23 11:35:40;;;;;;;8.10;3.80;;;;;;;;;;4991528;28;20457;-80
2023/04/23 11:38:12;;;;;;;6.93;3.63;;;;;;;;;;5005478;28;20430;-81
2023/04/23 11:40:41;;;;;;;7.28;3.75;;;;;;;;;;4987640;28;20586;-80
2023/04/23 11:43:09;;;;;;;8.48;4.50;;;;;;;;;;4989483;28;20438;-81
2023/04/23 11:45:43;;;;;;;7.40;3.90;;;;;;;;;;5005734;28;20437;-81
2023/04/23 11:48:17;;;;;;;8.63;3.97;;;;;;;;;;4991638;28;20435;-81
2023/04/23 11:50:45;;;;;;;6.78;3.75;;;;;;;;;;4984372;28;20791;-80
2023/04/23 11:53:18;;;;;;;9.10;4.00;;;;;;;;;;4989520;28;20434;-80
2023/04/23 11:55:48;;;;;;;6.60;4.00;;;;;;;;;;4981692;28;20542;-81
2023/04/23 11:58:17;;;;;;;7.18;4.22;;;;;;;;;;4990630;28;20902;-81
2023/04/23 12:00:47;;;;;;;7.60;4.45;;;;;;;;;;5006222;28;20430;-81
2023/04/23 12:03:25;;;;;;;7.43;4.22;;;;;;;;;;4992497;28;20426;-79
2023/04/23 12:05:54;;;;;;;7.70;4.28;;;;;;;;;;4990947;28;20425;-81
2023/04/23 12:08:33;;;;;;;7.90;4.30;;;;;;;;;;4983500;28;20445;-80
2023/04/23 12:11:06;;;;;;;7.65;4.22;;;;;;;;;;4985827;28;20430;-81
2023/04/23 12:13:41;;;;;;;7.43;4.07;;;;;;;;;;5004912;28;20784;-80
2023/04/23 12:16:10;;;;;;;9.27;4.53;;;;;;;;;;5000041;28;20438;-81
2023/04/23 12:18:41;;;;;;;8.07;4.40;;;;;;;;;;4991602;28;20433;-81
2023/04/23 12:21:14;;;;;;;7.60;4.10;;;;;;;;;;5005763;28;20434;-81
2023/04/23 12:23:51;;;;;;;7.85;4.30;;;;;;;;;;5004516;28;20438;-81
2023/04/23 12:26:20;;;;;;;7.03;4.20;;;;;;;;;;4987920;28;20434;-82
2023/04/23 12:28:49;;;;;;;7.68;4.32;;;;;;;;;;4991487;28;20426;-80
2023/04/23 12:31:22;;;;;;;9.90;4.78;;;;;;;;;;4989371;28;20779;-82
2023/04/23 12:33:59;;;;;;;7.68;4.35;;;;;;;;;;5000564;28;20434;-81
2023/04/23 12:36:28;;;;;;;10.07;4.50;;;;;;;;;;4988504;28;20435;-81
2023/04/23 12:39:20;;;;;;;7.68;4.68;;;;;;;;;;4980798;28;21082;-81
2023/04/23 12:41:48;;;;;;;8.57;4.80;;;;;;;;;;4992303;28;20441;-82
2023/04/23 12:44:16;;;;;;;9.63;5.47;;;;;;;;;;4990945;28;20458;-82
2023/04/23 12:46:45;;;;;;;7.97;4.95;;;;;;;;;;4989698;28;20430;-81
2023/04/23 12:49:13;;;;;;;8.75;4.78;;;;;;;;;;4990700;28;20430;-81
2023/04/23 12:51:41;;;;;;;9.30;5.22;;;;;;;;;;4990788;28;20432;-81
2023/04/23 12:54:08;;;;;;;9.60;5.03;;;;;;;;;;4990490;28;20436;-81
2023/04/23 12:56:36;;;;;;;7.63;4.65;;;;;;;;;;4991435;28;20429;-82
2023/04/23 12:59:04;;;;;;;8.82;4.68;;;;;;;;;;5006716;28;20439;-81
2023/04/23 13:01:37;;;;;;;7.97;4.33;;;;;;;;;;4989953;28;20907;-81
2023/04/23 13:04:06;;;;;;;8.13;4.63;;;;;;;;;;4996208;28;20443;-82
2023/04/23 13:06:34;;;;;;;7.85;4.55;;;;;;;;;;4989102;28;20441;-83
2023/04/23 13:09:04;;;;;;;8.60;4.80;;;;;;;;;;4989884;28;20437;-82
2023/04/23 13:11:32;;;;;;;9.25;4.65;;;;;;;;;;4991123;28;20423;-83
2023/04/23 13:14:04;;;;;;;7.57;4.18;;;;;;;;;;4989923;28;20797;-83
2023/04/23 13:16:37;;;;;;;7.97;4.50;;;;;;;;;;4982172;28;20440;-81
2023/04/23 13:19:12;;;;;;;7.43;4.68;;;;;;;;;;4990652;28;20768;-81
2023/04/23 13:21:45;;;;;;;7.70;4.20;;;;;;;;;;4982366;28;20821;-83
2023/04/23 13:24:18;;;;;;;7.32;4.50;;;;;;;;;;4988117;28;20434;-81
2023/04/23 13:26:46;;;;;;;7.35;4.50;;;;;;;;;;5003067;28;20799;-81
2023/04/23 13:29:18;;;;;;;7.35;4.30;;;;;;;;;;4989720;28;20457;-84
2023/04/23 13:31:46;;;;;;;8.25;4.95;;;;;;;;;;4985325;28;20432;-83
2023/04/23 13:34:20;;;;;;;6.47;3.97;;;;;;;;;;4989401;28;20434;-83
2023/04/23 13:36:53;;;;;;;8.00;4.30;;;;;;;;;;4990205;28;21208;-84
2023/04/23 13:39:26;;;;;;;7.50;4.40;;;;;;;;;;4988375;28;20434;-83
2023/04/23 13:41:54;;;;;;;7.80;4.10;;;;;;;;;;5003433;28;20442;-81
2023/04/23 13:44:21;;;;;;;8.07;4.30;;;;;;;;;;4988710;28;20428;-82
2023/04/23 13:46:49;;;;;;;8.10;4.43;;;;;;;;;;4980090;28;20442;-82
2023/04/23 13:49:17;;;;;;;8.25;4.60;;;;;;;;;;4987956;28;20445;-82
2023/04/23 13:51:46;;;;;;;8.40;4.00;;;;;;;;;;4989916;28;20875;-83
2023/04/23 13:54:14;;;;;;;8.88;3.85;;;;;;;;;;4987137;28;20426;-83
2023/04/23 13:56:42;;;;;;;7.22;4.00;;;;;;;;;;4988546;28;20942;-81
2023/04/23 13:59:15;;;;;;;6.87;3.97;;;;;;;;;;4989402;28;20442;-82
2023/04/23 14:01:48;;;;;;;6.78;3.78;;;;;;;;;;4988861;28;20430;-81
2023/04/23 14:04:22;;;;;;;8.50;4.10;;;;;;;;;;4982783;28;20434;-82
2023/04/23 14:06:56;;;;;;;8.00;4.50;;;;;;;;;;4987903;28;20441;-82
2023/04/23 14:09:29;;;;;;;8.80;5.00;;;;;;;;;;4989860;28;20434;-82
2023/04/23 14:11:57;;;;;;;7.47;4.32;;;;;;;;;;4987386;28;20426;-82
2023/04/23 14:14:30;;;;;;;8.10;4.03;;;;;;;;;;4980042;28;20442;-82
2023/04/23 14:17:02;;;;;;;8.23;4.20;;;;;;;;;;4988553;28;20880;-81
2023/04/23 14:19:36;;;;;;;8.55;4.40;;;;;;;;;;4990517;28;20934;-82
2023/04/23 14:22:05;;;;;;;6.82;3.67;;;;;;;;;;4984187;28;20472;-82
2023/04/23 14:24:39;;;;;;;6.82;3.75;;;;;;;;;;4986881;28;20425;-81
2023/04/23 14:27:08;;;;;;;6.68;3.78;;;;;;;;;;5003090;28;20466;-81
2023/04/23 14:29:39;;;;;;;6.32;3.60;;;;;;;;;;4987748;28;20422;-81
2023/04/23 14:32:07;;;;;;;7.70;3.75;;;;;;;;;;4987461;28;20435;-85
2023/04/23 14:34:35;;;;;;;7.68;4.20;;;;;;;;;;4985630;28;20772;-82
2023/04/23 14:37:03;;;;;;;6.50;4.00;;;;;;;;;;4998538;28;20446;-82
2023/04/23 14:39:33;;;;;;;5.78;3.30;;;;;;;;;;4985182;28;20430;-82
2023/04/23 14:42:06;;;;;;;5.78;3.10;;;;;;;;;;4985647;28;20434;-82
2023/04/23 14:44:39;;;;;;;7.03;3.30;;;;;;;;;;4986680;28;20898;-83
2023/04/23 14:47:13;;;;;;;7.30;3.42;;;;;;;;;;5004317;28;20437;-81
2023/04/23 14:49:46;;;;;;;5.60;2.90;;;;;;;;;;5004731;28;20435;-83
2023/04/23 14:52:14;;;;;;;4.75;2.67;;;;;;;;;;4987618;28;20430;-82
2023/04/23 14:54:43;;;;;;;5.25;3.15;;;;;;;;;;5002940;28;20445;-86